sensor_id;sensor_type;location;lat;lon;timestamp;pressure;altitude;pressure_sealevel;temperature;humidity
18527;BME280;9393;42.158;24.748;2022-11-14T00:03:21;100785.84;;;11.23;72.48
18527;BME280;9393;42.158;24.748;2022-11-14T00:06:45;100782.28;;;11.35;72.07
18527;BME280;9393;42.158;24.748;2022-11-14T00:10:07;100786.50;;;11.02;73.46
18527;BME280;9393;42.158;24.748;2022-11-14T00:13:30;100776.25;;;10.88;74.09
18527;BME280;9393;42.158;24.748;2022-11-14T00:16:52;100773.69;;;10.99;73.58
18527;BME280;9393;42.158;24.748;2022-11-14T00:20:14;100767.06;;;10.48;75.01
18527;BME280;9393;42.158;24.748;2022-11-14T00:23:38;100765.94;;;10.63;74.49
18527;BME280;9393;42.158;24.748;2022-11-14T00:27:00;100761.94;;;10.70;74.90
18527;BME280;9393;42.158;24.748;2022-11-14T00:30:22;100760.19;;;10.47;75.82
18527;BME280;9393;42.158;24.748;2022-11-14T00:33:45;100755.88;;;10.70;75.15
18527;BME280;9393;42.158;24.748;2022-11-14T00:37:07;100755.84;;;10.82;74.42
18527;BME280;9393;42.158;24.748;2022-11-14T00:40:31;100750.38;;;10.85;74.91
18527;BME280;9393;42.158;24.748;2022-11-14T00:43:53;100749.00;;;11.03;74.00
18527;BME280;9393;42.158;24.748;2022-11-14T00:47:16;100742.34;;;10.99;74.31
18527;BME280;9393;42.158;24.748;2022-11-14T00:50:38;100746.16;;;11.06;73.76
18527;BME280;9393;42.158;24.748;2022-11-14T00:54:00;100738.72;;;10.78;75.50
18527;BME280;9393;42.158;24.748;2022-11-14T00:57:23;100741.16;;;10.92;75.05
18527;BME280;9393;42.158;24.748;2022-11-14T01:00:46;100732.28;;;11.06;74.36
18527;BME280;9393;42.158;24.748;2022-11-14T01:04:08;100730.97;;;11.11;73.92
18527;BME280;9393;42.158;24.748;2022-11-14T01:07:31;100730.25;;;10.98;74.10
18527;BME280;9393;42.158;24.748;2022-11-14T01:10:53;100726.72;;;11.22;73.13
18527;BME280;9393;42.158;24.748;2022-11-14T01:14:17;100729.75;;;10.93;74.09
18527;BME280;9393;42.158;24.748;2022-11-14T01:17:39;100722.88;;;11.03;73.95
18527;BME280;9393;42.158;24.748;2022-11-14T01:21:04;100722.50;;;10.97;73.98
18527;BME280;9393;42.158;24.748;2022-11-14T01:24:27;100726.69;;;11.10;73.38
18527;BME280;9393;42.158;24.748;2022-11-14T01:27:49;100723.47;;;11.07;73.56
18527;BME280;9393;42.158;24.748;2022-11-14T01:31:15;100712.44;;;11.03;73.82
18527;BME280;9393;42.158;24.748;2022-11-14T01:34:38;100715.81;;;11.17;73.23
18527;BME280;9393;42.158;24.748;2022-11-14T01:38:00;100703.00;;;11.13;73.08
18527;BME280;9393;42.158;24.748;2022-11-14T01:41:23;100709.16;;;11.12;73.08
18527;BME280;9393;42.158;24.748;2022-11-14T01:44:47;100714.09;;;11.04;73.39
18527;BME280;9393;42.158;24.748;2022-11-14T01:48:17;100716.34;;;10.98;73.48
18527;BME280;9393;42.158;24.748;2022-11-14T01:51:44;100708.44;;;10.99;73.35
18527;BME280;9393;42.158;24.748;2022-11-14T01:55:08;100707.69;;;10.97;73.46
18527;BME280;9393;42.158;24.748;2022-11-14T01:58:32;100705.09;;;10.97;73.32
18527;BME280;9393;42.158;24.748;2022-11-14T02:01:58;100703.91;;;11.01;72.85
18527;BME280;9393;42.158;24.748;2022-11-14T02:05:24;100704.25;;;10.86;73.49
18527;BME280;9393;42.158;24.748;2022-11-14T02:08:47;100703.28;;;10.87;73.36
18527;BME280;9393;42.158;24.748;2022-11-14T02:12:13;100699.72;;;10.88;73.13
18527;BME280;9393;42.158;24.748;2022-11-14T02:15:38;100697.81;;;10.44;74.75
18527;BME280;9393;42.158;24.748;2022-11-14T02:19:00;100688.84;;;10.59;73.74
18527;BME280;9393;42.158;24.748;2022-11-14T02:22:24;100692.94;;;10.16;75.11
18527;BME280;9393;42.158;24.748;2022-11-14T02:25:47;100674.13;;;10.47;73.61
18527;BME280;9393;42.158;24.748;2022-11-14T02:29:10;100682.38;;;10.64;73.05
18527;BME280;9393;42.158;24.748;2022-11-14T02:32:32;100678.59;;;10.45;73.09
18527;BME280;9393;42.158;24.748;2022-11-14T02:36:14;100681.25;;;10.56;73.00
18527;BME280;9393;42.158;24.748;2022-11-14T02:39:38;100679.97;;;10.61;72.48
18527;BME280;9393;42.158;24.748;2022-11-14T02:43:00;100678.88;;;10.53;72.51
18527;BME280;9393;42.158;24.748;2022-11-14T02:46:23;100672.72;;;10.54;72.28
18527;BME280;9393;42.158;24.748;2022-11-14T02:49:45;100672.25;;;10.60;71.78
18527;BME280;9393;42.158;24.748;2022-11-14T02:53:07;100678.78;;;10.65;71.55
18527;BME280;9393;42.158;24.748;2022-11-14T02:56:31;100683.53;;;10.60;71.25
18527;BME280;9393;42.158;24.748;2022-11-14T02:59:53;100675.09;;;10.57;71.03
18527;BME280;9393;42.158;24.748;2022-11-14T03:03:16;100677.19;;;10.52;71.19
18527;BME280;9393;42.158;24.748;2022-11-14T03:06:38;100681.94;;;10.47;71.02
18527;BME280;9393;42.158;24.748;2022-11-14T03:10:00;100690.09;;;10.42;71.10
18527;BME280;9393;42.158;24.748;2022-11-14T03:13:27;100689.72;;;10.36;71.33
18527;BME280;9393;42.158;24.748;2022-11-14T03:16:50;100688.59;;;10.51;71.10
18527;BME280;9393;42.158;24.748;2022-11-14T03:20:12;100689.00;;;10.34;71.31
18527;BME280;9393;42.158;24.748;2022-11-14T03:23:35;100687.53;;;10.53;70.76
18527;BME280;9393;42.158;24.748;2022-11-14T03:26:57;100698.47;;;10.35;71.66
18527;BME280;9393;42.158;24.748;2022-11-14T03:30:21;100694.88;;;10.25;71.76
18527;BME280;9393;42.158;24.748;2022-11-14T03:33:43;100695.09;;;9.61;74.39
18527;BME280;9393;42.158;24.748;2022-11-14T03:37:05;100694.75;;;10.02;72.90
18527;BME280;9393;42.158;24.748;2022-11-14T03:40:28;100690.19;;;9.57;74.88
18527;BME280;9393;42.158;24.748;2022-11-14T03:43:50;100681.75;;;9.90;74.11
18527;BME280;9393;42.158;24.748;2022-11-14T03:47:14;100687.09;;;9.88;73.34
18527;BME280;9393;42.158;24.748;2022-11-14T03:50:35;100688.13;;;10.22;72.02
18527;BME280;9393;42.158;24.748;2022-11-14T03:53:57;100689.88;;;10.22;71.89
18527;BME280;9393;42.158;24.748;2022-11-14T03:57:20;100686.91;;;9.79;73.47
18527;BME280;9393;42.158;24.748;2022-11-14T04:00:42;100690.50;;;9.52;74.00
18527;BME280;9393;42.158;24.748;2022-11-14T04:04:05;100683.16;;;10.06;72.38
18527;BME280;9393;42.158;24.748;2022-11-14T04:07:27;100687.41;;;9.84;72.30
18527;BME280;9393;42.158;24.748;2022-11-14T04:10:49;100692.28;;;9.88;72.32
18527;BME280;9393;42.158;24.748;2022-11-14T04:14:12;100681.69;;;9.30;74.52
18527;BME280;9393;42.158;24.748;2022-11-14T04:17:34;100679.75;;;9.93;72.18
18527;BME280;9393;42.158;24.748;2022-11-14T04:21:00;100683.72;;;9.99;71.85
18527;BME280;9393;42.158;24.748;2022-11-14T04:24:22;100683.63;;;9.88;72.36
18527;BME280;9393;42.158;24.748;2022-11-14T04:27:44;100685.25;;;10.01;72.13
18527;BME280;9393;42.158;24.748;2022-11-14T04:31:07;100686.06;;;10.14;71.93
18527;BME280;9393;42.158;24.748;2022-11-14T04:34:30;100683.03;;;10.08;71.97
18527;BME280;9393;42.158;24.748;2022-11-14T04:37:53;100680.09;;;9.89;72.36
18527;BME280;9393;42.158;24.748;2022-11-14T04:41:15;100679.19;;;10.13;71.93
18527;BME280;9393;42.158;24.748;2022-11-14T04:44:38;100683.75;;;10.23;71.32
18527;BME280;9393;42.158;24.748;2022-11-14T04:48:00;100688.19;;;9.97;72.02
18527;BME280;9393;42.158;24.748;2022-11-14T04:51:22;100686.38;;;10.10;72.15
18527;BME280;9393;42.158;24.748;2022-11-14T04:54:46;100693.09;;;10.25;71.25
18527;BME280;9393;42.158;24.748;2022-11-14T04:58:08;100688.41;;;10.30;71.14
18527;BME280;9393;42.158;24.748;2022-11-14T05:01:31;100694.94;;;10.36;70.86
18527;BME280;9393;42.158;24.748;2022-11-14T05:04:53;100688.88;;;10.35;71.01
18527;BME280;9393;42.158;24.748;2022-11-14T05:08:15;100697.22;;;10.17;71.73
18527;BME280;9393;42.158;24.748;2022-11-14T05:11:39;100700.69;;;9.68;73.66
18527;BME280;9393;42.158;24.748;2022-11-14T05:15:01;100705.97;;;9.79;73.74
18527;BME280;9393;42.158;24.748;2022-11-14T05:18:24;100704.38;;;9.89;73.54
18527;BME280;9393;42.158;24.748;2022-11-14T05:21:47;100711.16;;;9.92;72.79
18527;BME280;9393;42.158;24.748;2022-11-14T05:25:09;100712.81;;;9.31;74.50
18527;BME280;9393;42.158;24.748;2022-11-14T05:28:33;100715.81;;;9.50;73.79
18527;BME280;9393;42.158;24.748;2022-11-14T05:31:55;100712.84;;;9.80;71.91
18527;BME280;9393;42.158;24.748;2022-11-14T05:35:19;100722.38;;;9.69;73.91
18527;BME280;9393;42.158;24.748;2022-11-14T05:38:41;100726.66;;;9.57;73.30
18527;BME280;9393;42.158;24.748;2022-11-14T05:42:04;100730.97;;;9.82;71.90
18527;BME280;9393;42.158;24.748;2022-11-14T05:45:27;100732.00;;;9.79;71.33
18527;BME280;9393;42.158;24.748;2022-11-14T05:48:50;100740.78;;;9.78;71.63
18527;BME280;9393;42.158;24.748;2022-11-14T05:52:12;100735.34;;;9.81;71.31
18527;BME280;9393;42.158;24.748;2022-11-14T05:55:34;100740.19;;;10.35;70.32
18527;BME280;9393;42.158;24.748;2022-11-14T05:58:56;100737.78;;;10.44;68.86
18527;BME280;9393;42.158;24.748;2022-11-14T06:02:20;100733.53;;;10.78;69.05
18527;BME280;9393;42.158;24.748;2022-11-14T06:05:42;100740.19;;;10.93;67.42
18527;BME280;9393;42.158;24.748;2022-11-14T06:09:05;100740.25;;;11.15;67.24
18527;BME280;9393;42.158;24.748;2022-11-14T06:12:27;100742.75;;;11.39;66.26
18527;BME280;9393;42.158;24.748;2022-11-14T06:15:50;100732.31;;;11.39;66.16
18527;BME280;9393;42.158;24.748;2022-11-14T06:19:13;100739.78;;;11.55;66.78
18527;BME280;9393;42.158;24.748;2022-11-14T06:22:35;100740.31;;;11.82;65.70
18527;BME280;9393;42.158;24.748;2022-11-14T06:25:58;100741.31;;;12.13;64.77
18527;BME280;9393;42.158;24.748;2022-11-14T06:29:21;100745.66;;;12.35;64.50
18527;BME280;9393;42.158;24.748;2022-11-14T06:32:43;100743.63;;;12.38;64.39
18527;BME280;9393;42.158;24.748;2022-11-14T06:36:08;100737.75;;;12.46;64.31
18527;BME280;9393;42.158;24.748;2022-11-14T06:39:30;100742.66;;;12.71;63.75
18527;BME280;9393;42.158;24.748;2022-11-14T06:42:54;100736.66;;;12.80;62.67
18527;BME280;9393;42.158;24.748;2022-11-14T06:46:19;100749.06;;;12.78;62.81
18527;BME280;9393;42.158;24.748;2022-11-14T06:49:41;100739.69;;;13.17;62.39
18527;BME280;9393;42.158;24.748;2022-11-14T06:53:05;100741.53;;;13.56;61.18
18527;BME280;9393;42.158;24.748;2022-11-14T06:56:28;100739.53;;;13.70;60.17
18527;BME280;9393;42.158;24.748;2022-11-14T06:59:50;100730.72;;;13.80;59.54
18527;BME280;9393;42.158;24.748;2022-11-14T07:03:12;100726.53;;;14.08;58.45
18527;BME280;9393;42.158;24.748;2022-11-14T07:06:34;100732.34;;;14.21;58.05
18527;BME280;9393;42.158;24.748;2022-11-14T07:09:58;100734.63;;;14.54;57.11
18527;BME280;9393;42.158;24.748;2022-11-14T07:13:21;100736.16;;;13.98;57.83
18527;BME280;9393;42.158;24.748;2022-11-14T07:16:43;100740.56;;;13.97;58.66
18527;BME280;9393;42.158;24.748;2022-11-14T07:20:06;100742.19;;;14.38;57.11
18527;BME280;9393;42.158;24.748;2022-11-14T07:23:30;100751.91;;;14.57;56.68
18527;BME280;9393;42.158;24.748;2022-11-14T07:26:54;100740.84;;;14.82;55.97
18527;BME280;9393;42.158;24.748;2022-11-14T07:30:16;100735.41;;;14.93;54.52
18527;BME280;9393;42.158;24.748;2022-11-14T07:33:39;100737.50;;;14.80;54.91
18527;BME280;9393;42.158;24.748;2022-11-14T07:37:02;100734.03;;;14.99;54.11
18527;BME280;9393;42.158;24.748;2022-11-14T07:40:24;100731.56;;;14.88;54.45
18527;BME280;9393;42.158;24.748;2022-11-14T07:43:48;100732.06;;;15.10;53.59
18527;BME280;9393;42.158;24.748;2022-11-14T07:47:10;100731.50;;;15.07;54.18
18527;BME280;9393;42.158;24.748;2022-11-14T07:50:33;100722.63;;;15.27;53.27
18527;BME280;9393;42.158;24.748;2022-11-14T07:53:55;100724.22;;;15.57;53.05
18527;BME280;9393;42.158;24.748;2022-11-14T07:57:17;100730.69;;;15.62;53.19
18527;BME280;9393;42.158;24.748;2022-11-14T08:00:41;100724.94;;;15.77;53.77
18527;BME280;9393;42.158;24.748;2022-11-14T08:04:03;100724.44;;;15.63;54.17
18527;BME280;9393;42.158;24.748;2022-11-14T08:07:25;100723.13;;;15.77;53.80
18527;BME280;9393;42.158;24.748;2022-11-14T08:10:48;100730.88;;;16.06;53.48
18527;BME280;9393;42.158;24.748;2022-11-14T08:14:10;100723.50;;;16.09;53.66
18527;BME280;9393;42.158;24.748;2022-11-14T08:17:34;100725.88;;;16.65;52.18
18527;BME280;9393;42.158;24.748;2022-11-14T08:20:56;100720.31;;;16.51;52.96
18527;BME280;9393;42.158;24.748;2022-11-14T08:24:18;100717.63;;;15.98;54.14
18527;BME280;9393;42.158;24.748;2022-11-14T08:27:41;100718.19;;;16.19;53.91
18527;BME280;9393;42.158;24.748;2022-11-14T08:31:03;100710.75;;;16.50;53.72
18527;BME280;9393;42.158;24.748;2022-11-14T08:34:28;100719.81;;;16.91;52.77
18527;BME280;9393;42.158;24.748;2022-11-14T08:37:50;100721.78;;;16.89;52.57
18527;BME280;9393;42.158;24.748;2022-11-14T08:41:12;100713.16;;;17.04;52.14
18527;BME280;9393;42.158;24.748;2022-11-14T08:44:35;100712.34;;;17.30;52.13
18527;BME280;9393;42.158;24.748;2022-11-14T08:47:57;100705.94;;;17.58;50.93
18527;BME280;9393;42.158;24.748;2022-11-14T08:51:21;100702.59;;;17.56;51.33
18527;BME280;9393;42.158;24.748;2022-11-14T08:54:43;100697.69;;;17.69;50.89
18527;BME280;9393;42.158;24.748;2022-11-14T08:58:05;100695.59;;;17.81;50.65
18527;BME280;9393;42.158;24.748;2022-11-14T09:01:28;100703.34;;;18.40;49.72
18527;BME280;9393;42.158;24.748;2022-11-14T09:04:53;100700.56;;;18.58;48.28
18527;BME280;9393;42.158;24.748;2022-11-14T09:08:16;100694.59;;;18.80;48.35
18527;BME280;9393;42.158;24.748;2022-11-14T09:11:39;100696.56;;;19.02;47.30
18527;BME280;9393;42.158;24.748;2022-11-14T09:15:01;100685.31;;;18.20;48.07
18527;BME280;9393;42.158;24.748;2022-11-14T09:18:23;100681.41;;;18.56;47.79
18527;BME280;9393;42.158;24.748;2022-11-14T09:21:45;100680.72;;;18.62;48.21
18527;BME280;9393;42.158;24.748;2022-11-14T09:25:09;100676.75;;;18.66;47.93
18527;BME280;9393;42.158;24.748;2022-11-14T09:28:32;100674.78;;;18.76;47.84
18527;BME280;9393;42.158;24.748;2022-11-14T09:31:57;100670.09;;;19.10;46.92
18527;BME280;9393;42.158;24.748;2022-11-14T09:35:19;100665.19;;;18.91;47.34
18527;BME280;9393;42.158;24.748;2022-11-14T09:38:42;100662.19;;;18.94;46.96
18527;BME280;9393;42.158;24.748;2022-11-14T09:42:21;100655.34;;;19.24;46.34
18527;BME280;9393;42.158;24.748;2022-11-14T09:45:51;100644.19;;;19.53;45.41
18527;BME280;9393;42.158;24.748;2022-11-14T09:49:24;100641.94;;;19.26;46.40
18527;BME280;9393;42.158;24.748;2022-11-14T09:52:52;100636.53;;;19.19;46.48
18527;BME280;9393;42.158;24.748;2022-11-14T09:56:19;100627.34;;;19.46;46.84
18527;BME280;9393;42.158;24.748;2022-11-14T09:59:45;100625.34;;;18.93;47.68
18527;BME280;9393;42.158;24.748;2022-11-14T10:03:13;100626.28;;;19.55;46.52
18527;BME280;9393;42.158;24.748;2022-11-14T10:06:42;100614.34;;;19.67;46.10
18527;BME280;9393;42.158;24.748;2022-11-14T10:10:15;100612.56;;;19.59;46.40
18527;BME280;9393;42.158;24.748;2022-11-14T10:14:02;100604.66;;;19.82;45.45
18527;BME280;9393;42.158;24.748;2022-11-14T10:17:44;100596.56;;;19.76;45.33
18527;BME280;9393;42.158;24.748;2022-11-14T10:21:24;100591.84;;;19.24;46.02
18527;BME280;9393;42.158;24.748;2022-11-14T10:25:06;100588.00;;;19.35;46.56
18527;BME280;9393;42.158;24.748;2022-11-14T10:28:45;100582.22;;;19.39;46.76
18527;BME280;9393;42.158;24.748;2022-11-14T10:32:19;100574.84;;;19.88;46.01
18527;BME280;9393;42.158;24.748;2022-11-14T10:35:48;100569.34;;;19.67;46.44
18527;BME280;9393;42.158;24.748;2022-11-14T10:39:17;100570.34;;;19.66;46.84
18527;BME280;9393;42.158;24.748;2022-11-14T10:42:42;100564.34;;;19.72;47.09
18527;BME280;9393;42.158;24.748;2022-11-14T10:46:10;100558.41;;;19.70;46.78
18527;BME280;9393;42.158;24.748;2022-11-14T10:49:35;100554.94;;;19.39;47.20
18527;BME280;9393;42.158;24.748;2022-11-14T10:53:01;100552.59;;;19.75;47.15
18527;BME280;9393;42.158;24.748;2022-11-14T10:56:28;100545.53;;;19.67;46.99
18527;BME280;9393;42.158;24.748;2022-11-14T10:59:52;100550.56;;;18.84;49.04
18527;BME280;9393;42.158;24.748;2022-11-14T11:03:15;100541.97;;;19.52;47.54
18527;BME280;9393;42.158;24.748;2022-11-14T11:06:38;100545.47;;;19.75;47.00
18527;BME280;9393;42.158;24.748;2022-11-14T11:10:03;100538.50;;;19.97;47.45
18527;BME280;9393;42.158;24.748;2022-11-14T11:13:50;100527.88;;;20.05;46.70
18527;BME280;9393;42.158;24.748;2022-11-14T11:17:17;100526.84;;;20.29;46.44
18527;BME280;9393;42.158;24.748;2022-11-14T11:20:41;100516.16;;;19.99;46.92
18527;BME280;9393;42.158;24.748;2022-11-14T11:24:04;100507.78;;;19.50;47.98
18527;BME280;9393;42.158;24.748;2022-11-14T11:27:28;100510.13;;;19.68;48.47
18527;BME280;9393;42.158;24.748;2022-11-14T11:30:54;100500.28;;;19.99;47.70
18527;BME280;9393;42.158;24.748;2022-11-14T11:34:21;100490.13;;;19.65;48.04
18527;BME280;9393;42.158;24.748;2022-11-14T11:37:48;100490.53;;;19.77;47.94
18527;BME280;9393;42.158;24.748;2022-11-14T11:41:20;100487.66;;;19.41;49.15
18527;BME280;9393;42.158;24.748;2022-11-14T11:45:11;100481.94;;;19.30;48.65
18527;BME280;9393;42.158;24.748;2022-11-14T11:48:38;100485.50;;;19.37;48.94
18527;BME280;9393;42.158;24.748;2022-11-14T11:52:03;100475.91;;;19.66;47.63
18527;BME280;9393;42.158;24.748;2022-11-14T11:55:29;100484.03;;;19.65;48.09
18527;BME280;9393;42.158;24.748;2022-11-14T11:58:56;100478.50;;;19.21;49.13
18527;BME280;9393;42.158;24.748;2022-11-14T12:02:23;100474.16;;;18.97;49.47
18527;BME280;9393;42.158;24.748;2022-11-14T12:05:51;100472.81;;;18.71;50.30
18527;BME280;9393;42.158;24.748;2022-11-14T12:09:19;100461.13;;;19.27;49.26
18527;BME280;9393;42.158;24.748;2022-11-14T12:13:27;100460.97;;;19.51;48.89
18527;BME280;9393;42.158;24.748;2022-11-14T12:17:31;100462.63;;;19.21;49.54
18527;BME280;9393;42.158;24.748;2022-11-14T12:21:22;100451.47;;;18.72;50.90
18527;BME280;9393;42.158;24.748;2022-11-14T12:25:34;100452.53;;;19.25;49.75
18527;BME280;9393;42.158;24.748;2022-11-14T12:29:13;100451.03;;;18.99;50.15
18527;BME280;9393;42.158;24.748;2022-11-14T12:32:49;100451.09;;;18.83;50.77
18527;BME280;9393;42.158;24.748;2022-11-14T12:36:13;100451.53;;;19.03;50.65
18527;BME280;9393;42.158;24.748;2022-11-14T12:39:36;100443.50;;;19.11;50.09
18527;BME280;9393;42.158;24.748;2022-11-14T12:42:59;100446.34;;;18.79;50.82
18527;BME280;9393;42.158;24.748;2022-11-14T12:46:22;100441.81;;;18.95;50.99
18527;BME280;9393;42.158;24.748;2022-11-14T12:50:04;100443.22;;;19.06;50.44
18527;BME280;9393;42.158;24.748;2022-11-14T12:53:43;100432.38;;;18.62;51.75
18527;BME280;9393;42.158;24.748;2022-11-14T12:57:08;100438.69;;;18.45;52.62
18527;BME280;9393;42.158;24.748;2022-11-14T13:01:05;100438.25;;;18.25;53.16
18527;BME280;9393;42.158;24.748;2022-11-14T13:04:36;100433.13;;;18.32;52.99
18527;BME280;9393;42.158;24.748;2022-11-14T13:08:15;100432.00;;;18.26;53.29
18527;BME280;9393;42.158;24.748;2022-11-14T13:11:44;100431.25;;;17.77;54.22
18527;BME280;9393;42.158;24.748;2022-11-14T13:15:26;100428.03;;;18.30;53.35
18527;BME280;9393;42.158;24.748;2022-11-14T13:19:18;100424.50;;;18.38;53.52
18527;BME280;9393;42.158;24.748;2022-11-14T13:22:59;100418.72;;;18.50;53.01
18527;BME280;9393;42.158;24.748;2022-11-14T13:26:43;100420.53;;;18.42;52.84
18527;BME280;9393;42.158;24.748;2022-11-14T13:30:06;100424.50;;;18.46;53.38
18527;BME280;9393;42.158;24.748;2022-11-14T13:33:40;100420.59;;;18.26;53.62
18527;BME280;9393;42.158;24.748;2022-11-14T13:37:13;100415.94;;;18.44;53.40
18527;BME280;9393;42.158;24.748;2022-11-14T13:40:45;100415.94;;;18.36;53.88
18527;BME280;9393;42.158;24.748;2022-11-14T13:44:38;100413.72;;;18.08;54.73
18527;BME280;9393;42.158;24.748;2022-11-14T13:51:57;100415.09;;;17.88;55.49
18527;BME280;9393;42.158;24.748;2022-11-14T13:55:22;100410.28;;;17.92;55.73
18527;BME280;9393;42.158;24.748;2022-11-14T14:06:41;100401.88;;;17.72;56.64
18527;BME280;9393;42.158;24.748;2022-11-14T14:10:21;100406.00;;;17.42;57.43
18527;BME280;9393;42.158;24.748;2022-11-14T14:13:56;100414.75;;;17.27;58.14
18527;BME280;9393;42.158;24.748;2022-11-14T14:17:26;100409.13;;;17.38;58.00
18527;BME280;9393;42.158;24.748;2022-11-14T14:20:57;100410.13;;;17.29;58.29
18527;BME280;9393;42.158;24.748;2022-11-14T14:24:47;100398.72;;;17.04;58.44
18527;BME280;9393;42.158;24.748;2022-11-14T14:28:18;100405.28;;;16.92;59.65
18527;BME280;9393;42.158;24.748;2022-11-14T14:31:43;100399.06;;;16.51;61.00
18527;BME280;9393;42.158;24.748;2022-11-14T14:35:23;100401.22;;;16.55;60.81
18527;BME280;9393;42.158;24.748;2022-11-14T14:38:45;100400.66;;;16.44;61.53
18527;BME280;9393;42.158;24.748;2022-11-14T14:42:10;100396.88;;;16.46;61.39
18527;BME280;9393;42.158;24.748;2022-11-14T14:45:44;100389.31;;;16.43;61.97
18527;BME280;9393;42.158;24.748;2022-11-14T14:49:06;100395.88;;;16.39;61.93
18527;BME280;9393;42.158;24.748;2022-11-14T14:52:30;100393.31;;;16.22;62.88
18527;BME280;9393;42.158;24.748;2022-11-14T14:55:55;100399.56;;;16.21;63.10
18527;BME280;9393;42.158;24.748;2022-11-14T14:59:21;100395.88;;;16.13;63.25
18527;BME280;9393;42.158;24.748;2022-11-14T15:02:44;100396.44;;;15.91;64.45
18527;BME280;9393;42.158;24.748;2022-11-14T15:06:25;100391.75;;;15.77;65.23
18527;BME280;9393;42.158;24.748;2022-11-14T15:09:52;100386.06;;;15.90;64.79
18527;BME280;9393;42.158;24.748;2022-11-14T15:13:17;100390.03;;;15.68;65.93
18527;BME280;9393;42.158;24.748;2022-11-14T15:16:42;100396.47;;;15.74;65.84
18527;BME280;9393;42.158;24.748;2022-11-14T15:20:19;100387.25;;;15.70;66.26
18527;BME280;9393;42.158;24.748;2022-11-14T15:23:43;100390.41;;;15.55;66.80
18527;BME280;9393;42.158;24.748;2022-11-14T15:27:10;100397.34;;;15.56;66.84
18527;BME280;9393;42.158;24.748;2022-11-14T15:30:33;100398.63;;;15.52;66.62
18527;BME280;9393;42.158;24.748;2022-11-14T15:34:05;100398.09;;;15.49;67.02
18527;BME280;9393;42.158;24.748;2022-11-14T15:37:28;100408.22;;;15.26;68.18
18527;BME280;9393;42.158;24.748;2022-11-14T15:41:15;100408.28;;;15.34;67.93
18527;BME280;9393;42.158;24.748;2022-11-14T15:44:38;100411.22;;;15.31;67.98
18527;BME280;9393;42.158;24.748;2022-11-14T15:48:02;100410.56;;;15.11;68.30
18527;BME280;9393;42.158;24.748;2022-11-14T15:51:42;100424.84;;;15.27;67.63
18527;BME280;9393;42.158;24.748;2022-11-14T15:55:12;100415.94;;;15.28;67.58
18527;BME280;9393;42.158;24.748;2022-11-14T15:58:36;100417.00;;;15.17;68.40
18527;BME280;9393;42.158;24.748;2022-11-14T16:02:02;100416.63;;;15.12;68.49
18527;BME280;9393;42.158;24.748;2022-11-14T16:05:28;100411.91;;;15.15;68.01
18527;BME280;9393;42.158;24.748;2022-11-14T16:08:52;100417.59;;;15.11;68.29
18527;BME280;9393;42.158;24.748;2022-11-14T16:12:15;100418.81;;;14.99;68.16
18527;BME280;9393;42.158;24.748;2022-11-14T16:15:39;100418.34;;;14.86;69.20
18527;BME280;9393;42.158;24.748;2022-11-14T16:19:02;100413.03;;;14.95;68.63
18527;BME280;9393;42.158;24.748;2022-11-14T16:22:25;100418.19;;;14.87;69.45
18527;BME280;9393;42.158;24.748;2022-11-14T16:25:48;100412.56;;;14.82;69.57
18527;BME280;9393;42.158;24.748;2022-11-14T16:29:14;100421.44;;;14.99;68.52
18527;BME280;9393;42.158;24.748;2022-11-14T16:32:37;100418.28;;;14.95;68.64
18527;BME280;9393;42.158;24.748;2022-11-14T16:36:07;100415.41;;;14.89;69.19
18527;BME280;9393;42.158;24.748;2022-11-14T16:39:30;100419.75;;;14.80;69.04
18527;BME280;9393;42.158;24.748;2022-11-14T16:42:55;100424.66;;;14.65;70.10
18527;BME280;9393;42.158;24.748;2022-11-14T16:46:18;100417.78;;;14.64;70.26
18527;BME280;9393;42.158;24.748;2022-11-14T16:49:40;100422.25;;;14.54;70.98
18527;BME280;9393;42.158;24.748;2022-11-14T16:53:02;100418.56;;;14.47;70.59
18527;BME280;9393;42.158;24.748;2022-11-14T16:56:44;100415.56;;;14.60;69.96
18527;BME280;9393;42.158;24.748;2022-11-14T17:00:10;100413.31;;;14.47;70.83
18527;BME280;9393;42.158;24.748;2022-11-14T17:03:33;100419.38;;;14.48;70.67
18527;BME280;9393;42.158;24.748;2022-11-14T17:06:56;100418.00;;;14.44;70.72
18527;BME280;9393;42.158;24.748;2022-11-14T17:10:18;100413.59;;;14.44;70.75
18527;BME280;9393;42.158;24.748;2022-11-14T17:13:44;100417.91;;;14.26;71.70
18527;BME280;9393;42.158;24.748;2022-11-14T17:17:08;100410.84;;;14.36;71.12
18527;BME280;9393;42.158;24.748;2022-11-14T17:20:31;100409.63;;;14.31;71.87
18527;BME280;9393;42.158;24.748;2022-11-14T17:23:54;100418.56;;;14.38;70.98
18527;BME280;9393;42.158;24.748;2022-11-14T17:27:16;100417.59;;;14.39;70.26
18527;BME280;9393;42.158;24.748;2022-11-14T17:30:39;100418.75;;;14.27;70.92
18527;BME280;9393;42.158;24.748;2022-11-14T17:34:07;100411.53;;;14.29;70.30
18527;BME280;9393;42.158;24.748;2022-11-14T17:37:29;100406.91;;;14.13;71.17
18527;BME280;9393;42.158;24.748;2022-11-14T17:40:55;100414.41;;;13.98;71.47
18527;BME280;9393;42.158;24.748;2022-11-14T17:44:21;100410.97;;;13.98;71.55
18527;BME280;9393;42.158;24.748;2022-11-14T17:47:43;100414.53;;;14.06;71.06
18527;BME280;9393;42.158;24.748;2022-11-14T17:51:10;100406.06;;;14.22;70.38
18527;BME280;9393;42.158;24.748;2022-11-14T17:54:33;100412.88;;;14.05;71.23
18527;BME280;9393;42.158;24.748;2022-11-14T17:57:57;100410.25;;;14.05;71.17
18527;BME280;9393;42.158;24.748;2022-11-14T18:01:22;100405.97;;;14.04;71.25
18527;BME280;9393;42.158;24.748;2022-11-14T18:04:44;100406.41;;;13.90;72.05
18527;BME280;9393;42.158;24.748;2022-11-14T18:08:09;100405.75;;;13.88;72.19
18527;BME280;9393;42.158;24.748;2022-11-14T18:11:33;100402.03;;;13.81;73.05